createdAt,value
2022-08-02T00:00:55.787Z,100.00
2022-08-02T00:03:24.482Z,100.00
2022-08-02T00:05:53.715Z,100.00
2022-08-02T00:08:21.338Z,100.00
2022-08-02T00:10:48.073Z,100.00
2022-08-02T00:13:14.736Z,100.00
2022-08-02T00:15:41.454Z,100.00
2022-08-02T00:18:08.121Z,100.00
2022-08-02T00:20:34.814Z,100.00
2022-08-02T00:23:01.709Z,100.00
2022-08-02T00:25:28.382Z,100.00
2022-08-02T00:27:55.122Z,100.00
2022-08-02T00:30:21.817Z,100.00
2022-08-02T00:32:48.467Z,100.00
2022-08-02T00:35:15.141Z,100.00
2022-08-02T00:37:42.232Z,100.00
2022-08-02T00:40:09.712Z,100.00
2022-08-02T00:42:36.488Z,100.00
2022-08-02T00:45:03.388Z,100.00
2022-08-02T00:47:30.090Z,100.00
2022-08-02T00:49:56.835Z,100.00
2022-08-02T00:52:24.096Z,100.00
2022-08-02T00:54:50.762Z,100.00
2022-08-02T00:57:17.547Z,100.00
2022-08-02T00:59:44.257Z,100.00
2022-08-02T01:02:11.337Z,100.00
2022-08-02T01:04:38.295Z,100.00
2022-08-02T01:07:13.455Z,100.00
2022-08-02T01:09:44.292Z,100.00
2022-08-02T01:12:11.841Z,100.00
2022-08-02T01:14:39.095Z,100.00
2022-08-02T01:17:12.411Z,100.00
2022-08-02T01:19:39.057Z,100.00
2022-08-02T01:23:00.094Z,100.00
2022-08-02T01:25:29.459Z,100.00
2022-08-02T01:27:59.065Z,100.00
2022-08-02T01:30:26.040Z,100.00
2022-08-02T01:32:55.678Z,100.00
2022-08-02T01:35:24.494Z,100.00
2022-08-02T01:37:57.047Z,100.00
2022-08-02T01:40:34.438Z,100.00
2022-08-02T01:43:01.902Z,100.00
2022-08-02T01:45:33.769Z,100.00
2022-08-02T01:48:01.008Z,100.00
2022-08-02T01:50:31.447Z,100.00
2022-08-02T01:52:59.264Z,100.00
2022-08-02T01:55:33.505Z,100.00
2022-08-02T01:58:16.717Z,100.00
2022-08-02T02:00:44.102Z,100.00
2022-08-02T02:03:15.527Z,100.00
2022-08-02T02:05:42.306Z,100.00
2022-08-02T02:08:09.783Z,100.00
2022-08-02T02:10:38.834Z,100.00
2022-08-02T02:13:06.883Z,100.00
2022-08-02T02:15:34.392Z,100.00
2022-08-02T02:18:13.155Z,100.00
2022-08-02T02:20:41.466Z,100.00
2022-08-02T02:23:08.136Z,100.00
2022-08-02T02:25:35.851Z,100.00
2022-08-02T02:28:13.125Z,100.00
2022-08-02T02:30:42.037Z,100.00
2022-08-02T02:33:09.987Z,100.00
2022-08-02T02:35:37.796Z,100.00
2022-08-02T02:38:05.757Z,100.00
2022-08-02T02:40:33.091Z,100.00
2022-08-02T02:43:01.064Z,100.00
2022-08-02T02:45:28.756Z,100.00
2022-08-02T02:47:55.850Z,100.00
2022-08-02T02:50:23.167Z,100.00
2022-08-02T02:52:50.418Z,100.00
2022-08-02T02:55:17.759Z,100.00
2022-08-02T02:57:44.652Z,100.00
2022-08-02T03:00:12.506Z,100.00
2022-08-02T03:02:40.082Z,100.00
2022-08-02T03:05:07.705Z,100.00
2022-08-02T03:07:34.859Z,100.00
2022-08-02T03:10:03.164Z,100.00
2022-08-02T03:12:32.140Z,100.00
2022-08-02T03:15:00.773Z,100.00
2022-08-02T03:17:37.213Z,100.00
2022-08-02T03:20:08.667Z,100.00
2022-08-02T03:22:35.388Z,100.00
2022-08-02T03:25:02.032Z,100.00
2022-08-02T03:27:28.678Z,100.00
2022-08-02T03:29:55.398Z,100.00
2022-08-02T03:32:22.020Z,100.00
2022-08-02T03:34:48.700Z,100.00
2022-08-02T03:37:15.727Z,100.00
2022-08-02T03:39:52.708Z,100.00
2022-08-02T03:42:21.141Z,100.00
2022-08-02T03:44:49.228Z,100.00
2022-08-02T03:47:16.368Z,100.00
2022-08-02T03:49:44.314Z,100.00
2022-08-02T03:52:11.535Z,100.00
2022-08-02T03:54:45.676Z,100.00
2022-08-02T03:57:14.523Z,100.00
2022-08-02T03:59:45.534Z,100.00
2022-08-02T04:02:13.367Z,100.00
2022-08-02T04:04:40.489Z,100.00
2022-08-02T04:07:07.317Z,100.00
2022-08-02T04:09:34.389Z,100.00
2022-08-02T04:12:01.019Z,100.00
2022-08-02T04:14:27.935Z,100.00
2022-08-02T04:17:02.988Z,100.00
2022-08-02T04:19:32.895Z,100.00
2022-08-02T04:22:01.941Z,100.00
2022-08-02T04:24:32.386Z,100.00
2022-08-02T04:27:12.588Z,100.00
2022-08-02T04:29:47.188Z,98.47
2022-08-02T04:32:14.972Z,93.60
2022-08-02T04:34:47.451Z,85.33
2022-08-02T04:37:21.633Z,81.85
2022-08-02T04:39:48.500Z,77.90
2022-08-02T04:42:24.990Z,76.55
2022-08-02T04:44:52.909Z,74.38
2022-08-02T04:47:54.280Z,70.48
2022-08-02T04:50:08.215Z,63.70
2022-08-02T04:52:34.877Z,59.42
2022-08-02T04:55:01.573Z,55.61
2022-08-02T04:57:52.827Z,56.72
2022-08-02T05:00:19.832Z,57.83
2022-08-02T05:02:46.605Z,61.48
2022-08-02T05:05:13.381Z,66.25
2022-08-02T05:07:40.036Z,63.47
2022-08-02T05:10:06.948Z,63.55
2022-08-02T05:12:33.688Z,60.57
2022-08-02T05:15:00.321Z,61.27
2022-08-02T05:17:26.964Z,57.71
2022-08-02T05:19:53.774Z,51.91
2022-08-02T05:22:20.535Z,49.06
2022-08-02T05:24:47.126Z,48.41
2022-08-02T05:27:16.991Z,49.42
2022-08-02T05:29:53.901Z,54.24
2022-08-02T05:32:24.982Z,58.08
2022-08-02T05:34:51.961Z,62.33
2022-08-02T05:37:18.699Z,65.70
2022-08-02T05:39:55.457Z,69.05
2022-08-02T05:42:23.562Z,71.80
2022-08-02T05:44:50.561Z,73.28
2022-08-02T05:47:17.349Z,75.35
2022-08-02T05:49:44.213Z,75.70
2022-08-02T05:52:11.262Z,75.63
2022-08-02T05:54:55.117Z,74.60
2022-08-02T05:57:40.694Z,74.58
2022-08-02T06:00:13.844Z,74.66
2022-08-02T06:02:43.329Z,73.58
2022-08-02T06:05:20.499Z,68.35
2022-08-02T06:07:50.318Z,59.98
2022-08-02T06:10:22.370Z,61.65
2022-08-02T06:12:50.355Z,65.80
2022-08-02T06:15:19.060Z,66.05
2022-08-02T06:17:46.988Z,65.36
2022-08-02T06:20:15.839Z,64.12
2022-08-02T06:22:44.746Z,59.46
2022-08-02T06:25:50.616Z,55.88
2022-08-02T07:24:23.218Z,53.98
2022-08-02T07:27:10.495Z,49.03
2022-08-02T07:29:44.965Z,48.34
2022-08-02T07:32:13.306Z,49.05
2022-08-02T07:34:40.182Z,47.03
2022-08-02T07:37:09.830Z,42.99
2022-08-02T07:39:47.218Z,43.68
2022-08-02T07:42:15.459Z,47.38
2022-08-02T07:44:43.054Z,46.49
2022-08-02T07:47:12.132Z,48.25
2022-08-02T07:49:39.259Z,44.04
2022-08-02T07:52:05.919Z,37.47
2022-08-02T07:54:32.513Z,35.95
2022-08-02T07:56:59.346Z,33.52
2022-08-02T07:59:26.038Z,32.33
2022-08-02T08:01:52.770Z,33.41
2022-08-02T08:04:20.231Z,32.10
2022-08-02T08:06:52.075Z,32.35
2022-08-02T08:09:19.494Z,32.88
2022-08-02T08:11:46.236Z,31.09
2022-08-02T08:14:16.639Z,33.91
2022-08-02T08:16:43.635Z,32.38
2022-08-02T08:19:10.308Z,30.84
2022-08-02T08:21:37.103Z,29.92
2022-08-02T08:24:04.896Z,29.89
2022-08-02T08:26:31.683Z,28.94
2022-08-02T08:28:58.382Z,28.32
2022-08-02T08:31:25.025Z,28.18
2022-08-02T08:33:52.745Z,28.30
2022-08-02T08:36:20.256Z,28.52
2022-08-02T08:38:47.027Z,27.81
2022-08-02T08:41:15.907Z,30.63
2022-08-02T08:43:42.654Z,29.74
2022-08-02T08:46:11.203Z,29.65
2022-08-02T08:48:41.431Z,28.67
2022-08-02T08:51:10.692Z,28.16
2022-08-02T08:53:41.278Z,28.47
2022-08-02T08:56:12.833Z,28.58
2022-08-02T08:58:42.899Z,28.25
2022-08-02T09:01:10.103Z,27.96
2022-08-02T09:03:36.789Z,29.53
2022-08-02T09:06:03.485Z,29.79
2022-08-02T09:08:32.356Z,30.33
2022-08-02T09:10:59.239Z,30.29
2022-08-02T09:13:45.031Z,29.71
2022-08-02T09:16:14.440Z,29.17
2022-08-02T09:18:46.462Z,29.57
2022-08-02T09:21:15.197Z,29.31
2022-08-02T09:23:43.769Z,29.67
2022-08-02T09:26:11.331Z,29.77
2022-08-02T09:28:39.023Z,30.27
2022-08-02T09:31:10.085Z,30.17
2022-08-02T09:33:37.949Z,31.21
2022-08-02T09:36:08.965Z,32.32
2022-08-02T09:38:37.214Z,31.04
2022-08-02T09:41:04.538Z,30.85
2022-08-02T09:44:03.765Z,31.29
2022-08-02T09:46:30.530Z,31.29
2022-08-02T09:49:04.568Z,31.25
2022-08-02T09:51:32.161Z,31.81
2022-08-02T09:54:08.258Z,31.27
2022-08-02T09:56:45.304Z,32.43
2022-08-02T09:59:12.149Z,32.78
2022-08-02T10:01:39.119Z,32.50
2022-08-02T10:04:19.922Z,32.85
2022-08-02T10:06:49.057Z,32.50
2022-08-02T10:09:15.816Z,32.53
2022-08-02T10:11:42.713Z,31.65
2022-08-02T10:14:10.829Z,31.31
2022-08-02T10:16:38.784Z,31.63
2022-08-02T10:19:05.615Z,32.23
2022-08-02T10:21:33.728Z,32.22
2022-08-02T10:24:10.981Z,32.22
2022-08-02T10:26:42.901Z,32.30
2022-08-02T10:29:10.636Z,32.17
2022-08-02T10:31:40.738Z,31.59
2022-08-02T10:34:10.318Z,31.14
2022-08-02T10:36:38.164Z,31.53
2022-08-02T10:39:05.425Z,33.06
2022-08-02T10:41:42.212Z,32.94
2022-08-02T10:44:24.416Z,33.64
2022-08-02T10:46:51.995Z,32.98
2022-08-02T10:52:07.226Z,34.84
2022-08-02T10:54:33.803Z,35.22
2022-08-02T10:57:01.668Z,36.36
2022-08-02T10:59:36.232Z,37.24
2022-08-02T11:02:05.072Z,37.86
2022-08-02T11:04:32.735Z,37.76
2022-08-02T11:07:10.289Z,38.57
2022-08-02T11:09:37.411Z,39.50
2022-08-02T11:12:12.304Z,38.56
2022-08-02T11:14:40.528Z,38.53
2022-08-02T11:17:09.304Z,38.95
2022-08-02T11:19:55.892Z,38.84
2022-08-02T11:22:25.921Z,40.00
2022-08-02T11:24:53.037Z,38.03
2022-08-02T11:27:22.320Z,41.21
2022-08-02T11:29:50.080Z,45.54
2022-08-02T11:32:21.484Z,47.34
2022-08-02T11:34:53.367Z,47.63
2022-08-02T11:37:40.744Z,48.22
2022-08-02T11:40:19.166Z,49.30
2022-08-02T11:42:50.734Z,50.83
2022-08-02T11:45:20.800Z,51.75
2022-08-02T11:47:49.682Z,53.36
2022-08-02T11:50:17.357Z,56.88
2022-08-02T11:52:44.404Z,64.90
2022-08-02T11:55:11.244Z,72.93
2022-08-02T11:58:01.456Z,77.77
2022-08-02T12:00:27.028Z,88.77
2022-08-02T12:02:57.649Z,84.87
2022-08-02T12:05:39.133Z,86.10
2022-08-02T12:08:11.019Z,85.46
2022-08-02T12:10:47.160Z,85.82
2022-08-02T12:13:13.769Z,82.73
2022-08-02T12:15:42.103Z,77.11
2022-08-02T12:18:28.591Z,77.74
2022-08-02T12:20:55.378Z,77.64
2022-08-02T12:23:22.124Z,72.91
2022-08-02T12:26:05.322Z,74.47
2022-08-02T12:28:35.745Z,79.50
2022-08-02T12:31:02.529Z,84.14
2022-08-02T12:33:30.192Z,86.02
2022-08-02T12:35:57.082Z,86.44
2022-08-02T12:38:23.733Z,87.38
2022-08-02T12:40:50.505Z,91.11
2022-08-02T12:43:22.368Z,89.41
2022-08-02T12:45:56.696Z,87.29
2022-08-02T12:48:38.020Z,88.54
2022-08-02T12:51:23.923Z,85.77
2022-08-02T12:53:59.708Z,85.01
2022-08-02T12:56:27.554Z,86.29
2022-08-02T12:58:54.208Z,87.62
2022-08-02T13:01:22.394Z,88.78
2022-08-02T13:04:11.191Z,85.13
2022-08-02T13:06:45.224Z,83.22
2022-08-02T13:09:13.665Z,80.44
2022-08-02T13:11:43.503Z,76.27
2022-08-02T13:14:10.914Z,75.22
2022-08-02T13:16:37.560Z,76.94
2022-08-02T13:19:04.309Z,77.39
2022-08-02T13:21:40.225Z,78.46
2022-08-02T13:24:37.714Z,79.56
2022-08-02T13:27:08.511Z,77.68
2022-08-02T13:29:37.481Z,79.61
2022-08-02T13:32:04.580Z,79.25
2022-08-02T13:34:31.394Z,73.33
2022-08-02T13:36:59.022Z,71.09
2022-08-02T13:39:25.746Z,71.44
2022-08-02T13:41:52.975Z,70.03
2022-08-02T13:44:19.785Z,69.19
2022-08-02T13:46:46.651Z,70.93
2022-08-02T13:49:18.821Z,73.68
2022-08-02T13:51:49.417Z,85.41
2022-08-02T13:54:17.394Z,83.63
2022-08-02T13:56:44.220Z,100.00
2022-08-02T13:59:54.474Z,98.74
2022-08-02T14:01:59.021Z,97.15
2022-08-02T14:04:26.469Z,98.17
2022-08-02T14:06:53.646Z,100.00
2022-08-02T14:09:20.796Z,100.00
2022-08-02T14:11:48.336Z,100.00
2022-08-02T14:14:16.918Z,100.00
2022-08-02T14:16:45.484Z,99.34
2022-08-02T14:19:16.331Z,98.75
2022-08-02T14:21:47.886Z,99.13
2022-08-02T14:24:20.161Z,100.00
2022-08-02T14:26:48.491Z,100.00
2022-08-02T14:29:16.706Z,100.00
2022-08-02T14:31:44.954Z,100.00
2022-08-02T14:34:13.230Z,100.00
2022-08-02T14:36:40.074Z,100.00
2022-08-02T14:39:07.053Z,100.00
2022-08-02T14:41:58.888Z,98.00
2022-08-02T14:44:23.897Z,97.05
2022-08-02T14:46:51.638Z,94.94
2022-08-02T14:49:25.334Z,95.31
2022-08-02T14:51:57.187Z,91.05
2022-08-02T14:54:30.948Z,90.47
2022-08-02T14:57:02.735Z,91.11
2022-08-02T14:59:30.254Z,87.97
2022-08-02T15:01:57.967Z,89.75
2022-08-02T15:04:25.373Z,85.28
2022-08-02T15:06:52.980Z,88.20
2022-08-02T15:09:20.626Z,90.00
2022-08-02T15:11:49.099Z,89.99
2022-08-02T15:14:25.682Z,90.30
2022-08-02T15:16:57.166Z,90.30
2022-08-02T15:19:27.228Z,93.28
2022-08-02T15:22:15.793Z,92.89
2022-08-02T15:24:43.338Z,91.81
2022-08-02T15:27:14.286Z,89.12
2022-08-02T15:29:42.757Z,90.34
2022-08-02T15:32:10.072Z,90.29
2022-08-02T15:34:37.074Z,88.95
2022-08-02T15:37:04.208Z,90.74
2022-08-02T15:39:31.338Z,90.48
2022-08-02T15:41:58.203Z,90.09
2022-08-02T15:44:25.233Z,88.78
2022-08-02T15:46:53.521Z,92.26
2022-08-02T15:49:21.119Z,93.50
2022-08-02T15:51:47.944Z,92.42
2022-08-02T15:54:14.714Z,92.91
2022-08-02T15:56:41.396Z,90.71
2022-08-02T15:59:08.032Z,89.01
2022-08-02T16:01:37.281Z,85.98
2022-08-02T16:04:05.882Z,86.23
2022-08-02T16:06:32.656Z,86.99
2022-08-02T16:08:59.250Z,86.45
2022-08-02T16:11:25.880Z,85.41
2022-08-02T16:13:55.326Z,87.19
2022-08-02T16:16:23.351Z,88.79
2022-08-02T16:18:50.048Z,89.15
2022-08-02T16:21:16.806Z,89.70
2022-08-02T16:23:59.206Z,89.78
2022-08-02T16:26:29.649Z,88.03
2022-08-02T16:28:56.998Z,90.46
2022-08-02T16:31:24.153Z,91.55
2022-08-02T16:33:50.870Z,91.55
2022-08-02T16:36:23.424Z,86.10
2022-08-02T16:38:50.073Z,85.89
2022-08-02T16:41:16.764Z,85.54
2022-08-02T16:43:43.356Z,84.02
2022-08-02T16:46:10.238Z,83.16
2022-08-02T16:48:37.003Z,84.12
2022-08-02T16:51:03.643Z,84.53
2022-08-02T16:53:37.093Z,84.88
2022-08-02T16:56:18.222Z,86.08
2022-08-02T16:58:47.668Z,85.87
2022-08-02T17:01:14.571Z,85.19
2022-08-02T17:03:56.273Z,82.72
2022-08-02T17:06:26.240Z,84.58
2022-08-02T17:08:56.381Z,84.17
2022-08-02T17:11:23.794Z,83.60
2022-08-02T17:13:51.484Z,81.80
2022-08-02T17:16:20.322Z,82.08
2022-08-02T17:18:54.133Z,82.70
2022-08-02T17:21:21.028Z,81.77
2022-08-02T17:24:05.062Z,80.38
2022-08-02T17:26:34.107Z,79.43
2022-08-02T17:29:15.453Z,79.65
2022-08-02T17:31:46.592Z,82.25
2022-08-02T17:34:31.672Z,82.67
2022-08-02T17:36:58.294Z,82.48
2022-08-02T17:39:24.873Z,82.10
2022-08-02T17:42:00.915Z,81.88
2022-08-02T17:44:37.636Z,81.58
2022-08-02T17:47:06.790Z,82.52
2022-08-02T17:49:33.516Z,83.50
2022-08-02T17:52:49.172Z,83.15
2022-08-02T17:54:48.639Z,83.64
2022-08-02T17:57:18.994Z,84.64
2022-08-02T18:00:03.563Z,84.40
2022-08-02T18:02:31.082Z,84.08
2022-08-02T18:04:57.686Z,84.09
2022-08-02T18:07:25.241Z,83.48
2022-08-02T18:09:52.176Z,82.26
2022-08-02T18:12:20.312Z,82.30
2022-08-02T18:14:49.034Z,82.00
2022-08-02T18:17:16.809Z,84.96
2022-08-02T18:19:57.165Z,85.22
2022-08-02T18:22:25.006Z,86.29
2022-08-02T18:24:53.222Z,88.44
2022-08-02T18:27:19.874Z,88.57
2022-08-02T18:29:47.323Z,88.87
2022-08-02T18:32:14.178Z,90.90
2022-08-02T18:34:41.019Z,92.60
2022-08-02T18:37:14.404Z,93.79
2022-08-02T18:39:51.300Z,96.32
2022-08-02T18:42:18.520Z,97.64
2022-08-02T18:44:45.271Z,94.81
2022-08-02T18:47:14.838Z,94.76
2022-08-02T18:49:46.607Z,97.00
2022-08-02T18:52:14.633Z,95.99
2022-08-02T18:54:41.781Z,95.53
2022-08-02T18:59:56.955Z,94.66
2022-08-02T19:02:24.948Z,97.05
2022-08-02T19:04:54.722Z,98.56
2022-08-02T19:07:22.528Z,99.96
2022-08-02T19:09:49.646Z,99.10
2022-08-02T19:12:22.573Z,99.52
2022-08-02T19:14:55.411Z,98.25
2022-08-02T19:17:53.658Z,100.00
2022-08-02T19:20:10.644Z,100.00
2022-08-02T19:22:46.833Z,100.00
2022-08-02T19:25:27.710Z,100.00
2022-08-02T19:27:55.270Z,100.00
2022-08-02T19:30:25.667Z,100.00
2022-08-02T19:33:00.300Z,99.85
2022-08-02T19:35:35.442Z,99.91
2022-08-02T19:38:22.370Z,100.00
2022-08-02T19:40:52.668Z,100.00
2022-08-02T19:44:25.452Z,100.00
2022-08-02T19:46:06.190Z,100.00
2022-08-02T19:48:42.379Z,100.00
2022-08-02T19:51:10.814Z,100.00
2022-08-02T19:53:47.520Z,100.00
2022-08-02T19:56:20.966Z,100.00
2022-08-02T19:58:49.342Z,100.00
2022-08-02T20:01:16.823Z,100.00
2022-08-02T20:03:52.661Z,100.00
2022-08-02T20:06:20.045Z,100.00
2022-08-02T20:08:59.137Z,100.00
2022-08-02T20:11:35.064Z,100.00
2022-08-02T20:14:02.668Z,100.00
2022-08-02T20:16:33.013Z,100.00
2022-08-02T20:19:00.851Z,100.00
2022-08-02T20:21:36.157Z,100.00
2022-08-02T20:24:05.652Z,100.00
2022-08-02T20:26:32.396Z,100.00
2022-08-02T20:29:02.395Z,100.00
2022-08-02T20:34:15.928Z,100.00
2022-08-02T20:36:44.127Z,100.00
2022-08-02T20:39:21.223Z,100.00
2022-08-02T20:41:52.964Z,100.00
2022-08-02T20:44:30.693Z,100.00
2022-08-02T20:46:59.080Z,100.00
2022-08-02T20:49:41.570Z,100.00
2022-08-02T20:52:24.187Z,100.00
2022-08-02T20:54:51.410Z,100.00
2022-08-02T20:57:18.038Z,100.00
2022-08-02T20:59:45.189Z,100.00
2022-08-02T21:02:19.541Z,100.00
2022-08-02T21:04:53.840Z,100.00
2022-08-02T21:07:21.186Z,100.00
2022-08-02T21:09:53.971Z,100.00
2022-08-02T21:12:29.917Z,100.00
2022-08-02T21:14:57.117Z,100.00
2022-08-02T21:17:43.195Z,100.00
2022-08-02T21:20:16.818Z,100.00
2022-08-02T21:22:44.714Z,100.00
2022-08-02T21:25:11.437Z,100.00
2022-08-02T21:27:51.818Z,100.00
2022-08-02T21:30:24.261Z,100.00
2022-08-02T21:32:53.119Z,100.00
2022-08-02T21:35:19.721Z,100.00
2022-08-02T21:37:47.566Z,100.00
2022-08-02T21:40:14.248Z,100.00
2022-08-02T21:42:40.930Z,100.00
2022-08-02T21:45:17.368Z,100.00
2022-08-02T21:47:46.725Z,100.00
2022-08-02T21:50:16.428Z,100.00
2022-08-02T21:52:52.128Z,100.00
2022-08-02T21:55:21.386Z,100.00
2022-08-02T21:57:51.305Z,100.00
2022-08-02T22:00:18.021Z,100.00
2022-08-02T22:02:55.403Z,100.00
2022-08-02T22:05:22.060Z,100.00
2022-08-02T22:07:48.648Z,100.00
2022-08-02T22:10:17.503Z,100.00
2022-08-02T22:12:44.186Z,100.00
2022-08-02T22:15:11.744Z,100.00
2022-08-02T22:17:52.221Z,100.00
2022-08-02T22:20:21.244Z,100.00
2022-08-02T22:22:52.467Z,100.00
2022-08-02T22:25:26.766Z,100.00
2022-08-02T22:28:36.586Z,100.00
2022-08-02T22:30:51.182Z,100.00
2022-08-02T22:33:38.353Z,100.00
2022-08-02T22:36:09.285Z,100.00
2022-08-02T22:38:38.288Z,100.00
2022-08-02T22:41:04.904Z,100.00
2022-08-02T22:43:35.830Z,100.00
2022-08-02T22:46:04.969Z,100.00
2022-08-02T22:48:36.052Z,100.00
2022-08-02T22:51:07.071Z,100.00
2022-08-02T22:53:35.456Z,100.00
2022-08-02T22:56:02.942Z,100.00
2022-08-02T22:58:29.620Z,100.00
2022-08-02T22:58:55.694Z,100.00
2022-08-02T22:59:00.260Z,97.17
2022-08-02T23:00:56.278Z,100.00
2022-08-02T23:03:22.924Z,100.00
2022-08-02T23:05:50.252Z,100.00
2022-08-02T23:08:16.897Z,100.00
2022-08-02T23:10:43.560Z,100.00
2022-08-02T23:13:10.527Z,100.00
2022-08-02T23:15:59.119Z,100.00
2022-08-02T23:18:44.772Z,100.00
2022-08-02T23:21:11.437Z,100.00
2022-08-02T23:23:38.054Z,100.00
2022-08-02T23:26:04.866Z,100.00
2022-08-02T23:28:32.061Z,100.00
2022-08-02T23:30:58.847Z,100.00
2022-08-02T23:33:25.641Z,100.00
2022-08-02T23:35:52.378Z,100.00
2022-08-02T23:38:19.122Z,100.00
2022-08-02T23:40:45.923Z,100.00
2022-08-02T23:43:14.212Z,100.00
2022-08-02T23:45:43.563Z,100.00
2022-08-02T23:48:10.364Z,100.00
2022-08-02T23:50:37.177Z,100.00
2022-08-02T23:53:04.102Z,100.00
2022-08-02T23:55:31.165Z,100.00
2022-08-02T23:57:57.893Z,100.00
